sensor_id;sensor_type;location;lat;lon;timestamp;pressure;altitude;pressure_sealevel;temperature;humidity
55217;BME280;41086;46.736;15.666;2023-03-24T00:01:55;98069.53;;;7.09;100.00
55217;BME280;41086;46.736;15.666;2023-03-24T00:04:22;98065.78;;;7.14;100.00
55217;BME280;41086;46.736;15.666;2023-03-24T00:06:50;98056.56;;;7.21;100.00
55217;BME280;41086;46.736;15.666;2023-03-24T00:09:18;98055.81;;;7.33;100.00
55217;BME280;41086;46.736;15.666;2023-03-24T00:11:45;98055.41;;;7.53;100.00
55217;BME280;41086;46.736;15.666;2023-03-24T00:14:12;98044.28;;;7.48;100.00
55217;BME280;41086;46.736;15.666;2023-03-24T00:16:40;98045.81;;;7.38;100.00
55217;BME280;41086;46.736;15.666;2023-03-24T00:19:12;98053.44;;;7.43;100.00
55217;BME280;41086;46.736;15.666;2023-03-24T00:21:40;98054.66;;;7.37;100.00
55217;BME280;41086;46.736;15.666;2023-03-24T00:24:08;98065.78;;;7.14;100.00
55217;BME280;41086;46.736;15.666;2023-03-24T00:26:36;98053.91;;;6.78;100.00
55217;BME280;41086;46.736;15.666;2023-03-24T00:29:06;98050.66;;;6.58;100.00
55217;BME280;41086;46.736;15.666;2023-03-24T00:31:33;98047.63;;;6.50;100.00
55217;BME280;41086;46.736;15.666;2023-03-24T00:34:06;98043.78;;;6.41;100.00
55217;BME280;41086;46.736;15.666;2023-03-24T00:36:35;98036.13;;;6.37;100.00
55217;BME280;41086;46.736;15.666;2023-03-24T00:39:03;98020.66;;;6.47;100.00
55217;BME280;41086;46.736;15.666;2023-03-24T00:41:32;98016.34;;;6.60;100.00
55217;BME280;41086;46.736;15.666;2023-03-24T00:44:00;98024.91;;;6.63;100.00
55217;BME280;41086;46.736;15.666;2023-03-24T00:46:29;98023.31;;;6.61;100.00
55217;BME280;41086;46.736;15.666;2023-03-24T00:49:05;98022.34;;;6.62;100.00
55217;BME280;41086;46.736;15.666;2023-03-24T00:51:38;98024.72;;;6.66;100.00
55217;BME280;41086;46.736;15.666;2023-03-24T00:54:07;98019.19;;;6.71;100.00
55217;BME280;41086;46.736;15.666;2023-03-24T00:56:36;98020.03;;;6.72;100.00
55217;BME280;41086;46.736;15.666;2023-03-24T00:59:06;98026.59;;;6.64;100.00
55217;BME280;41086;46.736;15.666;2023-03-24T01:01:36;98029.88;;;6.54;100.00
55217;BME280;41086;46.736;15.666;2023-03-24T01:04:06;98013.56;;;6.33;100.00
55217;BME280;41086;46.736;15.666;2023-03-24T01:06:36;97998.03;;;6.28;100.00
55217;BME280;41086;46.736;15.666;2023-03-24T01:09:04;97989.97;;;6.31;100.00
55217;BME280;41086;46.736;15.666;2023-03-24T01:11:35;97988.28;;;6.30;100.00
55217;BME280;41086;46.736;15.666;2023-03-24T01:14:04;97979.50;;;6.15;100.00
55217;BME280;41086;46.736;15.666;2023-03-24T01:16:31;97976.91;;;6.30;100.00
55217;BME280;41086;46.736;15.666;2023-03-24T01:18:58;97967.63;;;6.38;100.00
55217;BME280;41086;46.736;15.666;2023-03-24T01:21:26;97977.00;;;6.42;100.00
55217;BME280;41086;46.736;15.666;2023-03-24T01:23:53;97977.59;;;6.48;100.00
55217;BME280;41086;46.736;15.666;2023-03-24T01:26:20;97966.59;;;6.55;100.00
55217;BME280;41086;46.736;15.666;2023-03-24T01:28:47;97956.25;;;6.52;100.00
55217;BME280;41086;46.736;15.666;2023-03-24T01:31:13;97970.19;;;6.69;100.00
55217;BME280;41086;46.736;15.666;2023-03-24T01:33:40;97965.94;;;6.66;100.00
55217;BME280;41086;46.736;15.666;2023-03-24T01:36:08;97949.59;;;6.61;100.00
55217;BME280;41086;46.736;15.666;2023-03-24T01:38:35;97952.78;;;6.66;100.00
55217;BME280;41086;46.736;15.666;2023-03-24T01:41:05;97959.53;;;6.70;100.00
55217;BME280;41086;46.736;15.666;2023-03-24T01:43:34;97969.81;;;6.46;100.00
55217;BME280;41086;46.736;15.666;2023-03-24T01:46:12;97968.06;;;6.16;100.00
55217;BME280;41086;46.736;15.666;2023-03-24T01:48:44;97954.41;;;6.10;100.00
55217;BME280;41086;46.736;15.666;2023-03-24T01:51:25;97940.66;;;6.05;100.00
55217;BME280;41086;46.736;15.666;2023-03-24T01:54:06;97954.69;;;5.89;100.00
55217;BME280;41086;46.736;15.666;2023-03-24T01:56:38;97942.56;;;5.87;100.00
55217;BME280;41086;46.736;15.666;2023-03-24T01:59:17;97929.66;;;5.98;100.00
55217;BME280;41086;46.736;15.666;2023-03-24T02:02:05;97918.41;;;6.10;100.00
55217;BME280;41086;46.736;15.666;2023-03-24T02:04:46;97919.44;;;6.08;100.00
55217;BME280;41086;46.736;15.666;2023-03-24T02:10:22;97919.78;;;6.02;100.00
55217;BME280;41086;46.736;15.666;2023-03-24T02:12:50;97922.25;;;6.05;100.00
55217;BME280;41086;46.736;15.666;2023-03-24T02:15:18;97923.38;;;6.01;100.00
55217;BME280;41086;46.736;15.666;2023-03-24T02:31:56;97922.19;;;5.60;100.00
55217;BME280;41086;46.736;15.666;2023-03-24T02:37:32;97916.31;;;5.71;100.00
55217;BME280;41086;46.736;15.666;2023-03-24T02:40:17;97910.78;;;5.75;100.00
55217;BME280;41086;46.736;15.666;2023-03-24T02:54:07;97894.84;;;5.78;100.00
55217;BME280;41086;46.736;15.666;2023-03-24T02:59:56;97885.78;;;5.98;100.00
55217;BME280;41086;46.736;15.666;2023-03-24T03:03:08;97895.09;;;6.04;100.00
55217;BME280;41086;46.736;15.666;2023-03-24T03:05:41;97903.09;;;6.03;100.00
55217;BME280;41086;46.736;15.666;2023-03-24T03:08:13;97892.91;;;5.96;100.00
55217;BME280;41086;46.736;15.666;2023-03-24T03:10:45;97912.84;;;6.01;100.00
55217;BME280;41086;46.736;15.666;2023-03-24T03:13:23;97903.84;;;5.89;100.00
55217;BME280;41086;46.736;15.666;2023-03-24T03:15:52;97907.63;;;5.85;100.00
55217;BME280;41086;46.736;15.666;2023-03-24T03:18:27;97900.28;;;5.75;100.00
55217;BME280;41086;46.736;15.666;2023-03-24T03:21:01;97906.06;;;5.50;100.00
55217;BME280;41086;46.736;15.666;2023-03-24T03:23:42;97902.72;;;5.32;100.00
55217;BME280;41086;46.736;15.666;2023-03-24T03:26:15;97891.72;;;5.26;100.00
55217;BME280;41086;46.736;15.666;2023-03-24T03:28:49;97875.16;;;5.40;100.00
55217;BME280;41086;46.736;15.666;2023-03-24T03:31:30;97868.25;;;5.53;100.00
55217;BME280;41086;46.736;15.666;2023-03-24T03:37:00;97862.00;;;5.70;100.00
55217;BME280;41086;46.736;15.666;2023-03-24T03:39:37;97857.25;;;5.76;100.00
55217;BME280;41086;46.736;15.666;2023-03-24T03:42:09;97853.50;;;5.81;100.00
55217;BME280;41086;46.736;15.666;2023-03-24T03:44:36;97841.94;;;5.83;100.00
55217;BME280;41086;46.736;15.666;2023-03-24T03:47:03;97841.75;;;5.86;100.00
55217;BME280;41086;46.736;15.666;2023-03-24T03:49:42;97841.88;;;5.85;100.00
55217;BME280;41086;46.736;15.666;2023-03-24T03:52:09;97850.72;;;5.84;100.00
55217;BME280;41086;46.736;15.666;2023-03-24T03:54:37;97840.84;;;5.87;100.00
55217;BME280;41086;46.736;15.666;2023-03-24T03:57:05;97825.16;;;5.86;100.00
55217;BME280;41086;46.736;15.666;2023-03-24T03:59:52;97844.13;;;5.91;100.00
55217;BME280;41086;46.736;15.666;2023-03-24T04:30:48;97844.41;;;5.26;100.00
55217;BME280;41086;46.736;15.666;2023-03-24T04:33:38;97833.56;;;5.32;100.00
55217;BME280;41086;46.736;15.666;2023-03-24T04:36:15;97842.97;;;5.36;100.00
55217;BME280;41086;46.736;15.666;2023-03-24T04:39:26;97831.25;;;5.42;100.00
55217;BME280;41086;46.736;15.666;2023-03-24T04:42:00;97840.56;;;5.47;100.00
55217;BME280;41086;46.736;15.666;2023-03-24T04:44:28;97846.56;;;5.49;100.00
55217;BME280;41086;46.736;15.666;2023-03-24T04:47:41;97850.03;;;5.50;100.00
55217;BME280;41086;46.736;15.666;2023-03-24T04:50:30;97841.63;;;5.59;100.00
55217;BME280;41086;46.736;15.666;2023-03-24T04:52:59;97854.59;;;5.62;100.00
55217;BME280;41086;46.736;15.666;2023-03-24T04:58:35;97872.63;;;5.38;100.00
55217;BME280;41086;46.736;15.666;2023-03-24T05:01:03;97850.19;;;5.17;100.00
55217;BME280;41086;46.736;15.666;2023-03-24T05:03:32;97834.09;;;5.23;100.00
55217;BME280;41086;46.736;15.666;2023-03-24T05:06:04;97841.72;;;5.27;100.00
55217;BME280;41086;46.736;15.666;2023-03-24T05:08:32;97832.81;;;5.30;100.00
55217;BME280;41086;46.736;15.666;2023-03-24T05:10:59;97773.44;;;5.11;100.00
55217;BME280;41086;46.736;15.666;2023-03-24T05:13:29;97829.84;;;5.50;100.00
55217;BME280;41086;46.736;15.666;2023-03-24T05:15:59;97839.97;;;5.42;100.00
55217;BME280;41086;46.736;15.666;2023-03-24T05:18:32;97832.03;;;5.58;100.00
55217;BME280;41086;46.736;15.666;2023-03-24T05:20:59;97820.84;;;5.85;100.00
55217;BME280;41086;46.736;15.666;2023-03-24T05:23:26;97824.44;;;5.98;100.00
55217;BME280;41086;46.736;15.666;2023-03-24T05:25:55;97842.75;;;5.99;100.00
55217;BME280;41086;46.736;15.666;2023-03-24T05:28:23;97856.59;;;6.03;100.00
55217;BME280;41086;46.736;15.666;2023-03-24T05:30:53;97855.75;;;6.03;100.00
55217;BME280;41086;46.736;15.666;2023-03-24T05:33:37;97861.84;;;6.03;100.00
55217;BME280;41086;46.736;15.666;2023-03-24T05:36:04;97854.81;;;6.04;100.00
55217;BME280;41086;46.736;15.666;2023-03-24T05:38:32;97862.50;;;6.21;100.00
55217;BME280;41086;46.736;15.666;2023-03-24T05:40:59;97865.31;;;6.32;100.00
55217;BME280;41086;46.736;15.666;2023-03-24T05:43:32;97864.03;;;6.39;100.00
55217;BME280;41086;46.736;15.666;2023-03-24T05:46:18;97874.16;;;6.46;100.00
55217;BME280;41086;46.736;15.666;2023-03-24T05:48:47;97867.41;;;6.56;100.00
55217;BME280;41086;46.736;15.666;2023-03-24T05:51:15;97864.88;;;6.54;100.00
55217;BME280;41086;46.736;15.666;2023-03-24T05:53:44;97861.75;;;6.62;100.00
55217;BME280;41086;46.736;15.666;2023-03-24T05:56:14;97856.84;;;6.70;100.00
55217;BME280;41086;46.736;15.666;2023-03-24T05:59:10;97850.06;;;6.80;100.00
55217;BME280;41086;46.736;15.666;2023-03-24T06:01:51;97844.91;;;6.79;100.00
55217;BME280;41086;46.736;15.666;2023-03-24T06:04:26;97851.31;;;7.02;100.00
55217;BME280;41086;46.736;15.666;2023-03-24T06:07:02;97872.00;;;7.08;100.00
55217;BME280;41086;46.736;15.666;2023-03-24T06:09:31;97871.44;;;7.17;100.00
55217;BME280;41086;46.736;15.666;2023-03-24T06:12:03;97878.44;;;7.31;100.00
55217;BME280;41086;46.736;15.666;2023-03-24T06:14:34;97872.69;;;7.39;100.00
55217;BME280;41086;46.736;15.666;2023-03-24T06:17:08;97867.53;;;7.50;100.00
55217;BME280;41086;46.736;15.666;2023-03-24T06:19:43;97885.84;;;7.66;100.00
55217;BME280;41086;46.736;15.666;2023-03-24T06:22:25;97879.59;;;7.67;100.00
55217;BME280;41086;46.736;15.666;2023-03-24T06:24:52;97872.16;;;7.86;100.00
55217;BME280;41086;46.736;15.666;2023-03-24T06:27:22;97877.53;;;7.97;100.00
55217;BME280;41086;46.736;15.666;2023-03-24T06:29:56;97885.41;;;8.12;100.00
55217;BME280;41086;46.736;15.666;2023-03-24T06:32:24;97890.25;;;8.18;100.00
55217;BME280;41086;46.736;15.666;2023-03-24T06:34:52;97901.66;;;8.31;100.00
55217;BME280;41086;46.736;15.666;2023-03-24T06:37:30;97785.53;;;7.80;100.00
55217;BME280;41086;46.736;15.666;2023-03-24T06:40:00;97910.44;;;8.70;100.00
55217;BME280;41086;46.736;15.666;2023-03-24T06:42:31;97919.28;;;8.95;100.00
55217;BME280;41086;46.736;15.666;2023-03-24T06:44:59;97907.13;;;9.29;100.00
55217;BME280;41086;46.736;15.666;2023-03-24T06:47:26;97906.78;;;9.58;100.00
55217;BME280;41086;46.736;15.666;2023-03-24T06:49:53;97906.50;;;9.73;100.00
55217;BME280;41086;46.736;15.666;2023-03-24T06:52:20;97903.13;;;9.71;100.00
55217;BME280;41086;46.736;15.666;2023-03-24T06:54:48;97913.91;;;9.92;100.00
55217;BME280;41086;46.736;15.666;2023-03-24T06:57:16;97913.13;;;10.03;100.00
55217;BME280;41086;46.736;15.666;2023-03-24T07:00:07;97900.47;;;10.07;100.00
55217;BME280;41086;46.736;15.666;2023-03-24T07:02:45;97914.13;;;10.25;100.00
55217;BME280;41086;46.736;15.666;2023-03-24T07:05:13;97915.66;;;10.40;100.00
55217;BME280;41086;46.736;15.666;2023-03-24T07:07:42;97920.13;;;10.62;100.00
55217;BME280;41086;46.736;15.666;2023-03-24T07:10:44;97924.84;;;10.92;100.00
55217;BME280;41086;46.736;15.666;2023-03-24T07:13:12;97911.19;;;11.30;100.00
55217;BME280;41086;46.736;15.666;2023-03-24T07:15:39;97918.75;;;11.90;100.00
55217;BME280;41086;46.736;15.666;2023-03-24T07:18:08;97924.69;;;12.35;100.00
55217;BME280;41086;46.736;15.666;2023-03-24T07:20:39;97920.88;;;12.80;100.00
55217;BME280;41086;46.736;15.666;2023-03-24T07:23:12;97902.47;;;12.98;100.00
55217;BME280;41086;46.736;15.666;2023-03-24T07:25:58;97922.44;;;13.63;100.00
55217;BME280;41086;46.736;15.666;2023-03-24T07:28:48;97919.22;;;13.99;100.00
55217;BME280;41086;46.736;15.666;2023-03-24T07:31:39;97918.59;;;14.44;100.00
55217;BME280;41086;46.736;15.666;2023-03-24T07:34:09;97920.63;;;14.89;100.00
55217;BME280;41086;46.736;15.666;2023-03-24T07:36:38;97916.91;;;15.37;100.00
55217;BME280;41086;46.736;15.666;2023-03-24T07:39:10;97917.16;;;15.89;100.00
55217;BME280;41086;46.736;15.666;2023-03-24T07:41:37;97911.34;;;16.11;96.32
55217;BME280;41086;46.736;15.666;2023-03-24T07:44:11;97907.00;;;15.92;91.43
55217;BME280;41086;46.736;15.666;2023-03-24T07:46:43;97913.47;;;15.90;77.67
55217;BME280;41086;46.736;15.666;2023-03-24T07:49:11;97917.53;;;15.76;82.56
55217;BME280;41086;46.736;15.666;2023-03-24T07:51:51;97909.75;;;15.83;82.00
55217;BME280;41086;46.736;15.666;2023-03-24T07:54:27;97901.19;;;16.15;88.54
55217;BME280;41086;46.736;15.666;2023-03-24T07:56:55;97892.31;;;16.58;88.08
55217;BME280;41086;46.736;15.666;2023-03-24T07:59:22;97906.91;;;17.24;82.26
55217;BME280;41086;46.736;15.666;2023-03-24T08:02:15;97885.94;;;17.62;74.71
55217;BME280;41086;46.736;15.666;2023-03-24T08:05:16;97897.75;;;18.43;72.29
55217;BME280;41086;46.736;15.666;2023-03-24T08:08:10;97887.09;;;18.91;70.61
55217;BME280;41086;46.736;15.666;2023-03-24T08:10:37;97894.31;;;18.90;64.57
55217;BME280;41086;46.736;15.666;2023-03-24T08:13:03;97884.94;;;18.70;62.66
55217;BME280;41086;46.736;15.666;2023-03-24T08:15:30;97888.28;;;18.72;63.67
55217;BME280;41086;46.736;15.666;2023-03-24T08:17:57;97879.59;;;18.45;65.22
55217;BME280;41086;46.736;15.666;2023-03-24T08:20:24;97880.81;;;18.26;66.99
55217;BME280;41086;46.736;15.666;2023-03-24T08:22:53;97869.09;;;18.19;66.92
55217;BME280;41086;46.736;15.666;2023-03-24T08:25:23;97871.72;;;18.60;69.26
55217;BME280;41086;46.736;15.666;2023-03-24T08:27:50;97867.75;;;19.03;64.08
55217;BME280;41086;46.736;15.666;2023-03-24T08:30:19;97881.00;;;19.44;64.61
55217;BME280;41086;46.736;15.666;2023-03-24T08:32:52;97874.44;;;19.78;64.63
55217;BME280;41086;46.736;15.666;2023-03-24T08:35:23;97871.56;;;20.26;62.89
55217;BME280;41086;46.736;15.666;2023-03-24T08:37:50;97877.88;;;20.56;59.37
55217;BME280;41086;46.736;15.666;2023-03-24T08:40:21;97878.16;;;20.61;56.93
55217;BME280;41086;46.736;15.666;2023-03-24T08:42:52;97870.66;;;20.86;57.84
55217;BME280;41086;46.736;15.666;2023-03-24T08:45:20;97880.56;;;21.30;56.85
55217;BME280;41086;46.736;15.666;2023-03-24T08:47:50;97849.91;;;21.31;52.15
55217;BME280;41086;46.736;15.666;2023-03-24T08:50:23;97871.75;;;21.51;50.70
55217;BME280;41086;46.736;15.666;2023-03-24T08:52:51;97870.66;;;21.31;49.59
55217;BME280;41086;46.736;15.666;2023-03-24T08:55:20;97867.78;;;21.68;48.71
55217;BME280;41086;46.736;15.666;2023-03-24T08:57:47;97864.72;;;22.14;50.92
55217;BME280;41086;46.736;15.666;2023-03-24T09:00:15;97865.50;;;22.58;46.99
55217;BME280;41086;46.736;15.666;2023-03-24T09:02:45;97858.88;;;22.61;46.88
55217;BME280;41086;46.736;15.666;2023-03-24T09:05:13;97857.28;;;23.01;44.70
55217;BME280;41086;46.736;15.666;2023-03-24T09:07:41;97862.88;;;23.34;42.68
55217;BME280;41086;46.736;15.666;2023-03-24T09:10:09;97861.31;;;23.66;43.57
55217;BME280;41086;46.736;15.666;2023-03-24T09:12:37;97851.94;;;23.69;43.38
55217;BME280;41086;46.736;15.666;2023-03-24T09:15:05;97845.97;;;23.80;42.91
55217;BME280;41086;46.736;15.666;2023-03-24T09:17:33;97845.25;;;23.52;40.22
55217;BME280;41086;46.736;15.666;2023-03-24T09:20:01;97851.63;;;23.31;41.84
55217;BME280;41086;46.736;15.666;2023-03-24T09:22:30;97844.31;;;23.25;40.62
55217;BME280;41086;46.736;15.666;2023-03-24T09:24:57;97848.78;;;22.69;41.69
55217;BME280;41086;46.736;15.666;2023-03-24T09:27:24;97841.75;;;23.10;42.50
55217;BME280;41086;46.736;15.666;2023-03-24T09:29:51;97835.16;;;23.26;41.26
55217;BME280;41086;46.736;15.666;2023-03-24T09:32:20;97829.56;;;23.27;41.31
55217;BME280;41086;46.736;15.666;2023-03-24T09:34:46;97816.44;;;23.85;42.33
55217;BME280;41086;46.736;15.666;2023-03-24T09:37:14;97816.97;;;23.61;40.40
55217;BME280;41086;46.736;15.666;2023-03-24T09:39:41;97834.19;;;23.40;40.82
55217;BME280;41086;46.736;15.666;2023-03-24T09:42:21;97804.28;;;21.87;37.53
55217;BME280;41086;46.736;15.666;2023-03-24T09:44:57;97793.78;;;20.69;39.67
55217;BME280;41086;46.736;15.666;2023-03-24T09:47:39;97825.25;;;20.53;40.15
55217;BME280;41086;46.736;15.666;2023-03-24T09:50:33;97825.91;;;20.70;40.07
55217;BME280;41086;46.736;15.666;2023-03-24T09:53:30;97826.53;;;20.87;39.41
55217;BME280;41086;46.736;15.666;2023-03-24T09:55:54;97819.97;;;20.75;40.51
55217;BME280;41086;46.736;15.666;2023-03-24T09:58:23;97815.31;;;20.84;40.11
55217;BME280;41086;46.736;15.666;2023-03-24T10:00:53;97816.91;;;20.93;40.39
55217;BME280;41086;46.736;15.666;2023-03-24T10:03:23;97806.22;;;20.99;39.48
55217;BME280;41086;46.736;15.666;2023-03-24T10:06:11;97801.78;;;20.77;39.68
55217;BME280;41086;46.736;15.666;2023-03-24T10:08:48;97809.72;;;21.00;39.45
55217;BME280;41086;46.736;15.666;2023-03-24T10:17:28;97781.59;;;22.03;38.98
55217;BME280;41086;46.736;15.666;2023-03-24T10:22:44;97799.59;;;22.46;37.79
55217;BME280;41086;46.736;15.666;2023-03-24T10:25:31;97800.22;;;22.20;37.42
55217;BME280;41086;46.736;15.666;2023-03-24T10:31:02;97802.94;;;22.48;36.87
55217;BME280;41086;46.736;15.666;2023-03-24T10:33:32;97800.16;;;22.69;37.41
55217;BME280;41086;46.736;15.666;2023-03-24T10:36:04;97791.66;;;22.72;37.05
55217;BME280;41086;46.736;15.666;2023-03-24T10:38:33;97794.66;;;22.21;37.01
55217;BME280;41086;46.736;15.666;2023-03-24T10:41:01;97778.50;;;22.28;37.31
55217;BME280;41086;46.736;15.666;2023-03-24T10:43:29;97785.31;;;22.52;37.83
55217;BME280;41086;46.736;15.666;2023-03-24T10:45:58;97795.44;;;23.13;36.97
55217;BME280;41086;46.736;15.666;2023-03-24T10:48:41;97794.63;;;22.84;36.53
55217;BME280;41086;46.736;15.666;2023-03-24T10:51:31;97768.44;;;22.15;36.56
55217;BME280;41086;46.736;15.666;2023-03-24T10:54:19;97779.53;;;21.77;37.66
55217;BME280;41086;46.736;15.666;2023-03-24T10:59:35;97768.63;;;21.92;37.68
55217;BME280;41086;46.736;15.666;2023-03-24T11:04:37;97753.63;;;21.83;37.40
55217;BME280;41086;46.736;15.666;2023-03-24T11:07:21;97756.56;;;22.09;36.71
55217;BME280;41086;46.736;15.666;2023-03-24T11:09:59;97758.84;;;22.12;37.28
55217;BME280;41086;46.736;15.666;2023-03-24T11:12:35;97760.91;;;22.39;36.69
55217;BME280;41086;46.736;15.666;2023-03-24T11:15:21;97758.69;;;21.92;37.63
55217;BME280;41086;46.736;15.666;2023-03-24T11:17:55;97760.09;;;22.38;37.46
55217;BME280;41086;46.736;15.666;2023-03-24T11:20:35;97756.22;;;22.19;37.10
55217;BME280;41086;46.736;15.666;2023-03-24T11:25:35;97754.88;;;22.08;37.37
55217;BME280;41086;46.736;15.666;2023-03-24T11:28:06;97757.63;;;22.15;38.10
55217;BME280;41086;46.736;15.666;2023-03-24T11:30:52;97741.91;;;22.19;37.99
55217;BME280;41086;46.736;15.666;2023-03-24T11:39:10;97730.84;;;22.13;37.17
55217;BME280;41086;46.736;15.666;2023-03-24T11:42:05;97730.13;;;22.26;37.47
55217;BME280;41086;46.736;15.666;2023-03-24T11:49:56;97697.53;;;21.72;37.03
55217;BME280;41086;46.736;15.666;2023-03-24T11:52:30;97720.59;;;22.02;37.86
55217;BME280;41086;46.736;15.666;2023-03-24T11:55:00;97706.59;;;22.20;38.43
55217;BME280;41086;46.736;15.666;2023-03-24T11:57:55;97682.13;;;22.63;36.41
55217;BME280;41086;46.736;15.666;2023-03-24T12:00:30;97696.78;;;22.41;38.02
55217;BME280;41086;46.736;15.666;2023-03-24T12:05:57;97696.56;;;22.07;37.07
55217;BME280;41086;46.736;15.666;2023-03-24T12:21:48;97684.03;;;22.28;37.32
55217;BME280;41086;46.736;15.666;2023-03-24T12:24:45;97678.72;;;22.41;37.22
55217;BME280;41086;46.736;15.666;2023-03-24T12:27:36;97680.31;;;22.01;37.21
55217;BME280;41086;46.736;15.666;2023-03-24T12:30:26;97686.00;;;22.47;37.98
55217;BME280;41086;46.736;15.666;2023-03-24T12:36:19;97677.66;;;22.84;36.58
55217;BME280;41086;46.736;15.666;2023-03-24T12:39:10;97671.66;;;22.95;37.36
55217;BME280;41086;46.736;15.666;2023-03-24T12:49:35;97665.81;;;22.08;38.05
55217;BME280;41086;46.736;15.666;2023-03-24T12:57:18;97662.19;;;22.23;38.42
55217;BME280;41086;46.736;15.666;2023-03-24T13:00:02;97669.41;;;22.16;39.42
55217;BME280;41086;46.736;15.666;2023-03-24T13:02:38;97656.47;;;22.04;38.93
55217;BME280;41086;46.736;15.666;2023-03-24T13:05:14;97656.09;;;22.14;39.33
55217;BME280;41086;46.736;15.666;2023-03-24T13:07:44;97651.50;;;22.01;39.34
55217;BME280;41086;46.736;15.666;2023-03-24T13:10:19;97646.88;;;21.67;39.50
55217;BME280;41086;46.736;15.666;2023-03-24T13:15:42;97654.47;;;21.35;40.04
55217;BME280;41086;46.736;15.666;2023-03-24T13:18:35;97662.69;;;21.49;40.67
55217;BME280;41086;46.736;15.666;2023-03-24T13:21:25;97664.88;;;21.60;40.34
55217;BME280;41086;46.736;15.666;2023-03-24T13:23:56;97664.03;;;21.59;41.01
55217;BME280;41086;46.736;15.666;2023-03-24T13:31:40;97663.78;;;21.33;41.23
55217;BME280;41086;46.736;15.666;2023-03-24T13:37:12;97649.78;;;21.22;41.11
55217;BME280;41086;46.736;15.666;2023-03-24T13:39:43;97656.41;;;21.20;41.35
55217;BME280;41086;46.736;15.666;2023-03-24T13:42:30;97652.28;;;21.02;41.70
55217;BME280;41086;46.736;15.666;2023-03-24T13:44:59;97663.50;;;21.06;41.38
55217;BME280;41086;46.736;15.666;2023-03-24T13:47:49;97655.19;;;21.01;41.49
55217;BME280;41086;46.736;15.666;2023-03-24T13:50:23;97653.38;;;21.08;41.38
55217;BME280;41086;46.736;15.666;2023-03-24T13:52:51;97652.13;;;21.25;41.94
55217;BME280;41086;46.736;15.666;2023-03-24T13:57:56;97651.47;;;21.45;41.79
55217;BME280;41086;46.736;15.666;2023-03-24T14:00:25;97642.84;;;21.35;41.45
55217;BME280;41086;46.736;15.666;2023-03-24T14:02:54;97638.00;;;21.45;41.96
55217;BME280;41086;46.736;15.666;2023-03-24T14:07:49;97634.13;;;21.33;41.73
55217;BME280;41086;46.736;15.666;2023-03-24T14:13:00;97622.84;;;21.22;41.12
55217;BME280;41086;46.736;15.666;2023-03-24T14:15:56;97625.31;;;21.17;42.05
55217;BME280;41086;46.736;15.666;2023-03-24T14:28:49;97608.75;;;20.77;42.01
55217;BME280;41086;46.736;15.666;2023-03-24T14:31:20;97635.34;;;20.87;42.91
55217;BME280;41086;46.736;15.666;2023-03-24T14:38:51;97619.28;;;20.94;42.38
55217;BME280;41086;46.736;15.666;2023-03-24T14:41:27;97613.88;;;20.94;43.12
55217;BME280;41086;46.736;15.666;2023-03-24T14:43:57;97616.94;;;20.69;42.58
55217;BME280;41086;46.736;15.666;2023-03-24T14:49:26;97627.19;;;20.59;42.67
55217;BME280;41086;46.736;15.666;2023-03-24T14:52:09;97616.78;;;20.56;42.41
55217;BME280;41086;46.736;15.666;2023-03-24T14:54:44;97616.44;;;20.44;42.99
55217;BME280;41086;46.736;15.666;2023-03-24T14:57:36;97609.84;;;20.47;43.67
55217;BME280;41086;46.736;15.666;2023-03-24T15:00:18;97603.97;;;20.43;43.07
55217;BME280;41086;46.736;15.666;2023-03-24T15:03:10;97607.44;;;20.37;43.18
55217;BME280;41086;46.736;15.666;2023-03-24T15:05:43;97606.88;;;20.42;43.64
55217;BME280;41086;46.736;15.666;2023-03-24T15:08:19;97614.19;;;20.48;44.14
55217;BME280;41086;46.736;15.666;2023-03-24T15:15:59;97607.81;;;20.34;43.89
55217;BME280;41086;46.736;15.666;2023-03-24T15:18:27;97601.22;;;20.36;43.99
55217;BME280;41086;46.736;15.666;2023-03-24T15:20:54;97599.34;;;20.37;44.09
55217;BME280;41086;46.736;15.666;2023-03-24T15:23:25;97591.56;;;20.42;43.88
55217;BME280;41086;46.736;15.666;2023-03-24T15:25:54;97574.03;;;20.68;44.18
55217;BME280;41086;46.736;15.666;2023-03-24T15:28:29;97585.59;;;21.26;42.32
55217;BME280;41086;46.736;15.666;2023-03-24T15:30:57;97583.25;;;21.73;42.06
55217;BME280;41086;46.736;15.666;2023-03-24T15:33:24;97585.91;;;21.66;41.43
55217;BME280;41086;46.736;15.666;2023-03-24T15:35:56;97585.88;;;21.94;40.61
55217;BME280;41086;46.736;15.666;2023-03-24T15:38:31;97579.53;;;22.15;39.64
55217;BME280;41086;46.736;15.666;2023-03-24T15:41:06;97573.94;;;21.82;40.43
55217;BME280;41086;46.736;15.666;2023-03-24T15:43:40;97559.63;;;21.46;39.99
55217;BME280;41086;46.736;15.666;2023-03-24T15:46:23;97565.34;;;21.65;40.80
55217;BME280;41086;46.736;15.666;2023-03-24T15:48:52;97574.28;;;21.65;40.86
55217;BME280;41086;46.736;15.666;2023-03-24T15:51:19;97569.50;;;21.61;41.33
55217;BME280;41086;46.736;15.666;2023-03-24T15:54:19;97571.16;;;22.03;40.44
55217;BME280;41086;46.736;15.666;2023-03-24T15:57:10;97569.69;;;21.94;39.75
55217;BME280;41086;46.736;15.666;2023-03-24T15:59:45;97581.03;;;21.83;39.84
55217;BME280;41086;46.736;15.666;2023-03-24T16:02:38;97582.66;;;21.77;39.92
55217;BME280;41086;46.736;15.666;2023-03-24T16:05:34;97578.75;;;21.52;40.18
55217;BME280;41086;46.736;15.666;2023-03-24T16:08:21;97586.09;;;21.64;40.40
55217;BME280;41086;46.736;15.666;2023-03-24T16:13:24;97578.19;;;21.91;40.15
55217;BME280;41086;46.736;15.666;2023-03-24T16:18:40;97574.09;;;22.02;39.57
55217;BME280;41086;46.736;15.666;2023-03-24T16:21:14;97580.97;;;21.76;39.55
55217;BME280;41086;46.736;15.666;2023-03-24T16:23:43;97584.97;;;21.80;39.94
55217;BME280;41086;46.736;15.666;2023-03-24T16:26:30;97585.03;;;21.94;38.96